Rio Bananal, Brazil
Current Conditions -  °F | °C
As of 11:00 AM on Friday 19 Dec 2014 (Local Time) from SBVT Reporting Station
Few Clouds Few Clouds  
Wind Chill: 84°   Ceiling: Unl
Heat Index: 88°   Visibility: 6mi
Dew Point: 70°   Wind: 14mph
Humidity: 62%   Direction: 20°NNE
Pressure: 29.85"   Gusts: NA
Location:  19.26°S, 40.34°W
Report Text: SBVT 191300Z 02012KT 9999 FEW040 29/21 Q1011
Loading
Personal Weather Stations






























Interactive Weather Map New forecast layout! Learn more

10-Day Weather Forecast

Advertisements
Track Severe Weather on mobile